sensor_id;sensor_type;location;lat;lon;timestamp;pressure;altitude;pressure_sealevel;temperature;humidity
27304;BME280;14791;52.392;13.092;2023-11-19T00:00:34;101089.47;;;11.95;47.78
27304;BME280;14791;52.392;13.092;2023-11-19T00:03:03;101084.48;;;11.96;47.49
27304;BME280;14791;52.392;13.092;2023-11-19T00:05:33;101068.83;;;11.97;47.69
27304;BME280;14791;52.392;13.092;2023-11-19T00:08:02;101060.68;;;11.99;47.86
27304;BME280;14791;52.392;13.092;2023-11-19T00:10:32;101049.89;;;12.00;47.85
27304;BME280;14791;52.392;13.092;2023-11-19T00:13:00;101037.84;;;12.00;47.95
27304;BME280;14791;52.392;13.092;2023-11-19T00:15:30;101034.59;;;12.02;47.80
27304;BME280;14791;52.392;13.092;2023-11-19T00:17:59;101045.09;;;12.05;47.75
27304;BME280;14791;52.392;13.092;2023-11-19T00:20:29;101046.81;;;12.06;47.60
27304;BME280;14791;52.392;13.092;2023-11-19T00:23:01;101038.32;;;12.07;47.57
27304;BME280;14791;52.392;13.092;2023-11-19T00:25:30;101045.75;;;12.09;47.54
27304;BME280;14791;52.392;13.092;2023-11-19T00:27:59;101036.50;;;12.07;47.54
27304;BME280;14791;52.392;13.092;2023-11-19T00:30:29;101036.50;;;12.07;47.58
27304;BME280;14791;52.392;13.092;2023-11-19T00:32:59;101027.70;;;12.05;47.56
27304;BME280;14791;52.392;13.092;2023-11-19T00:35:28;101025.79;;;12.07;47.51
27304;BME280;14791;52.392;13.092;2023-11-19T00:37:58;101018.89;;;12.10;47.57
27304;BME280;14791;52.392;13.092;2023-11-19T00:40:28;101007.23;;;12.11;47.47
27304;BME280;14791;52.392;13.092;2023-11-19T00:42:57;100998.23;;;12.12;47.42
27304;BME280;14791;52.392;13.092;2023-11-19T00:45:26;100988.86;;;12.12;47.52
27304;BME280;14791;52.392;13.092;2023-11-19T00:47:55;100971.25;;;12.16;47.63
27304;BME280;14791;52.392;13.092;2023-11-19T00:50:26;100959.20;;;12.16;47.58
27304;BME280;14791;52.392;13.092;2023-11-19T00:52:55;100949.47;;;12.15;47.44
27304;BME280;14791;52.392;13.092;2023-11-19T00:55:24;100950.80;;;12.15;47.66
27304;BME280;14791;52.392;13.092;2023-11-19T00:57:55;100955.30;;;12.14;47.72
27304;BME280;14791;52.392;13.092;2023-11-19T01:00:24;100953.00;;;12.15;47.98
27304;BME280;14791;52.392;13.092;2023-11-19T01:02:55;100936.44;;;12.16;47.76
27304;BME280;14791;52.392;13.092;2023-11-19T01:05:23;100922.69;;;12.15;47.62
27304;BME280;14791;52.392;13.092;2023-11-19T01:07:52;100911.77;;;12.18;47.77
27304;BME280;14791;52.392;13.092;2023-11-19T01:10:21;100904.50;;;12.20;47.65
27304;BME280;14791;52.392;13.092;2023-11-19T01:12:53;100900.27;;;12.23;47.67
27304;BME280;14791;52.392;13.092;2023-11-19T01:15:21;100891.17;;;12.25;47.73
27304;BME280;14791;52.392;13.092;2023-11-19T01:17:50;100883.41;;;12.28;47.75
27304;BME280;14791;52.392;13.092;2023-11-19T01:20:20;100883.41;;;12.28;47.75
27304;BME280;14791;52.392;13.092;2023-11-19T01:22:50;100874.80;;;12.30;47.73
27304;BME280;14791;52.392;13.092;2023-11-19T01:25:21;100858.52;;;12.33;47.73
27304;BME280;14791;52.392;13.092;2023-11-19T01:27:51;100853.16;;;12.33;47.76
27304;BME280;14791;52.392;13.092;2023-11-19T01:30:20;100845.52;;;12.34;47.75
27304;BME280;14791;52.392;13.092;2023-11-19T01:32:50;100841.50;;;12.34;47.74
27304;BME280;14791;52.392;13.092;2023-11-19T01:35:19;100838.83;;;12.34;47.60
27304;BME280;14791;52.392;13.092;2023-11-19T01:37:48;100834.41;;;12.33;47.51
27304;BME280;14791;52.392;13.092;2023-11-19T01:40:20;100844.76;;;12.32;47.58
27304;BME280;14791;52.392;13.092;2023-11-19T01:42:49;100835.48;;;12.30;47.50
27304;BME280;14791;52.392;13.092;2023-11-19T01:45:27;100827.56;;;12.29;47.68
27304;BME280;14791;52.392;13.092;2023-11-19T01:48:00;100808.81;;;12.29;47.77
27304;BME280;14791;52.392;13.092;2023-11-19T01:50:33;100806.63;;;12.28;47.86
27304;BME280;14791;52.392;13.092;2023-11-19T01:53:03;100805.75;;;12.28;48.05
27304;BME280;14791;52.392;13.092;2023-11-19T01:55:34;100792.75;;;12.29;48.16
27304;BME280;14791;52.392;13.092;2023-11-19T01:58:03;100795.79;;;12.30;47.97
27304;BME280;14791;52.392;13.092;2023-11-19T02:00:32;100789.85;;;12.32;47.80
27304;BME280;14791;52.392;13.092;2023-11-19T02:03:01;100783.52;;;12.33;47.81
27304;BME280;14791;52.392;13.092;2023-11-19T02:05:32;100775.03;;;12.33;47.75
27304;BME280;14791;52.392;13.092;2023-11-19T02:08:02;100763.83;;;12.34;47.63
27304;BME280;14791;52.392;13.092;2023-11-19T02:10:31;100749.67;;;12.32;47.78
27304;BME280;14791;52.392;13.092;2023-11-19T02:13:01;100724.81;;;12.30;47.86
27304;BME280;14791;52.392;13.092;2023-11-19T02:15:32;100707.99;;;12.28;47.87
27304;BME280;14791;52.392;13.092;2023-11-19T02:18:23;100686.79;;;12.25;47.93
27304;BME280;14791;52.392;13.092;2023-11-19T02:21:00;100681.92;;;12.24;48.21
27304;BME280;14791;52.392;13.092;2023-11-19T02:23:27;100681.13;;;12.17;48.19
27304;BME280;14791;52.392;13.092;2023-11-19T02:26:17;100688.89;;;12.14;48.28
27304;BME280;14791;52.392;13.092;2023-11-19T02:28:37;100680.59;;;12.11;48.23
27304;BME280;14791;52.392;13.092;2023-11-19T02:31:06;100665.11;;;12.09;48.32
27304;BME280;14791;52.392;13.092;2023-11-19T02:33:37;100654.98;;;12.07;48.55
27304;BME280;14791;52.392;13.092;2023-11-19T02:36:08;100654.98;;;12.07;48.50
27304;BME280;14791;52.392;13.092;2023-11-19T02:38:37;100655.20;;;12.04;48.37
27304;BME280;14791;52.392;13.092;2023-11-19T02:41:08;100649.55;;;12.02;48.46
27304;BME280;14791;52.392;13.092;2023-11-19T02:43:38;100646.87;;;12.02;48.47
27304;BME280;14791;52.392;13.092;2023-11-19T02:46:07;100642.77;;;12.03;48.51
27304;BME280;14791;52.392;13.092;2023-11-19T02:48:38;100641.81;;;12.04;48.51
27304;BME280;14791;52.392;13.092;2023-11-19T02:51:07;100629.38;;;12.03;48.48
27304;BME280;14791;52.392;13.092;2023-11-19T02:53:39;100629.87;;;12.03;48.51
27304;BME280;14791;52.392;13.092;2023-11-19T02:56:08;100621.44;;;12.02;48.54
27304;BME280;14791;52.392;13.092;2023-11-19T02:58:43;100610.47;;;11.99;48.70
27304;BME280;14791;52.392;13.092;2023-11-19T03:01:14;100620.23;;;12.00;48.63
27304;BME280;14791;52.392;13.092;2023-11-19T03:03:44;100618.05;;;12.00;48.63
27304;BME280;14791;52.392;13.092;2023-11-19T03:06:15;100603.77;;;11.99;48.87
27304;BME280;14791;52.392;13.092;2023-11-19T03:08:44;100592.13;;;12.00;49.17
27304;BME280;14791;52.392;13.092;2023-11-19T03:11:13;100588.47;;;12.01;49.11
27304;BME280;14791;52.392;13.092;2023-11-19T03:13:43;100583.51;;;12.02;49.09
27304;BME280;14791;52.392;13.092;2023-11-19T03:16:12;100566.47;;;12.03;49.21
27304;BME280;14791;52.392;13.092;2023-11-19T03:18:41;100573.06;;;12.05;49.34
27304;BME280;14791;52.392;13.092;2023-11-19T03:21:10;100556.34;;;12.01;49.37
27304;BME280;14791;52.392;13.092;2023-11-19T03:23:39;100558.83;;;12.04;49.30
27304;BME280;14791;52.392;13.092;2023-11-19T03:26:08;100557.09;;;12.03;49.41
27304;BME280;14791;52.392;13.092;2023-11-19T03:28:38;100557.59;;;12.03;49.51
27304;BME280;14791;52.392;13.092;2023-11-19T03:31:07;100547.38;;;12.02;49.57
27304;BME280;14791;52.392;13.092;2023-11-19T03:33:38;100534.44;;;12.02;49.69
27304;BME280;14791;52.392;13.092;2023-11-19T03:36:07;100533.98;;;12.02;49.70
27304;BME280;14791;52.392;13.092;2023-11-19T03:38:37;100545.28;;;12.00;49.75
27304;BME280;14791;52.392;13.092;2023-11-19T03:41:12;100539.17;;;11.98;49.87
27304;BME280;14791;52.392;13.092;2023-11-19T03:43:42;100527.36;;;11.95;50.02
27304;BME280;14791;52.392;13.092;2023-11-19T03:46:20;100521.02;;;11.96;50.05
27304;BME280;14791;52.392;13.092;2023-11-19T03:48:51;100505.94;;;11.95;50.16
27304;BME280;14791;52.392;13.092;2023-11-19T03:51:20;100494.48;;;11.93;50.18
27304;BME280;14791;52.392;13.092;2023-11-19T03:53:48;100481.78;;;11.89;50.15
27304;BME280;14791;52.392;13.092;2023-11-19T03:56:17;100480.45;;;11.89;50.33
27304;BME280;14791;52.392;13.092;2023-11-19T03:58:46;100469.19;;;11.84;50.50
27304;BME280;14791;52.392;13.092;2023-11-19T04:01:17;100469.19;;;11.84;50.50
27304;BME280;14791;52.392;13.092;2023-11-19T04:03:46;100468.34;;;11.84;50.64
27304;BME280;14791;52.392;13.092;2023-11-19T04:06:15;100476.17;;;11.87;50.65
27304;BME280;14791;52.392;13.092;2023-11-19T04:08:44;100477.97;;;11.86;50.66
27304;BME280;14791;52.392;13.092;2023-11-19T04:11:13;100463.34;;;11.85;50.75
27304;BME280;14791;52.392;13.092;2023-11-19T04:13:42;100441.38;;;11.87;50.75
27304;BME280;14791;52.392;13.092;2023-11-19T04:16:11;100431.62;;;11.86;50.82
27304;BME280;14791;52.392;13.092;2023-11-19T04:18:42;100429.89;;;11.85;50.89
27304;BME280;14791;52.392;13.092;2023-11-19T04:21:11;100426.86;;;11.84;50.95
27304;BME280;14791;52.392;13.092;2023-11-19T04:23:40;100416.74;;;11.82;51.03
27304;BME280;14791;52.392;13.092;2023-11-19T04:26:10;100405.68;;;11.81;51.09
27304;BME280;14791;52.392;13.092;2023-11-19T04:28:40;100402.61;;;11.80;51.17
27304;BME280;14791;52.392;13.092;2023-11-19T04:31:09;100403.20;;;11.78;51.19
27304;BME280;14791;52.392;13.092;2023-11-19T04:33:38;100417.07;;;11.77;51.20
27304;BME280;14791;52.392;13.092;2023-11-19T04:36:08;100416.45;;;11.74;51.24
27304;BME280;14791;52.392;13.092;2023-11-19T04:38:37;100427.16;;;11.74;51.26
27304;BME280;14791;52.392;13.092;2023-11-19T04:41:09;100422.75;;;11.73;51.31
27304;BME280;14791;52.392;13.092;2023-11-19T04:43:38;100421.28;;;11.68;51.38
27304;BME280;14791;52.392;13.092;2023-11-19T04:46:09;100420.66;;;11.70;51.48
27304;BME280;14791;52.392;13.092;2023-11-19T04:48:38;100406.92;;;11.69;51.58
27304;BME280;14791;52.392;13.092;2023-11-19T04:51:06;100396.06;;;11.65;51.43
27304;BME280;14791;52.392;13.092;2023-11-19T04:53:37;100398.67;;;11.73;51.84
27304;BME280;14791;52.392;13.092;2023-11-19T04:56:10;100398.67;;;11.73;51.84
27304;BME280;14791;52.392;13.092;2023-11-19T04:58:39;100392.24;;;11.75;51.91
27304;BME280;14791;52.392;13.092;2023-11-19T05:01:13;100379.74;;;11.76;51.86
27304;BME280;14791;52.392;13.092;2023-11-19T05:03:40;100363.53;;;11.71;51.66
27304;BME280;14791;52.392;13.092;2023-11-19T05:06:09;100362.81;;;11.75;52.32
27304;BME280;14791;52.392;13.092;2023-11-19T05:08:38;100359.68;;;11.76;51.89
27304;BME280;14791;52.392;13.092;2023-11-19T05:11:07;100359.68;;;11.76;51.89
27304;BME280;14791;52.392;13.092;2023-11-19T05:13:37;100350.31;;;11.76;51.96
27304;BME280;14791;52.392;13.092;2023-11-19T05:16:07;100342.64;;;11.77;52.12
27304;BME280;14791;52.392;13.092;2023-11-19T05:18:36;100338.98;;;11.78;52.12
27304;BME280;14791;52.392;13.092;2023-11-19T05:21:05;100334.03;;;11.79;52.07
27304;BME280;14791;52.392;13.092;2023-11-19T05:23:35;100328.67;;;11.79;52.11
27304;BME280;14791;52.392;13.092;2023-11-19T05:26:04;100325.25;;;11.77;52.28
27304;BME280;14791;52.392;13.092;2023-11-19T05:28:33;100330.77;;;11.81;52.48
27304;BME280;14791;52.392;13.092;2023-11-19T05:31:02;100330.77;;;11.81;52.48
27304;BME280;14791;52.392;13.092;2023-11-19T05:33:31;100318.48;;;11.84;52.32
27304;BME280;14791;52.392;13.092;2023-11-19T05:36:00;100308.02;;;11.81;52.33
27304;BME280;14791;52.392;13.092;2023-11-19T05:38:31;100310.64;;;11.88;52.32
27304;BME280;14791;52.392;13.092;2023-11-19T05:41:00;100296.09;;;11.85;52.21
27304;BME280;14791;52.392;13.092;2023-11-19T05:43:31;100308.33;;;11.89;52.25
27304;BME280;14791;52.392;13.092;2023-11-19T05:46:02;100299.34;;;11.90;52.27
27304;BME280;14791;52.392;13.092;2023-11-19T05:48:31;100300.19;;;11.90;52.24
27304;BME280;14791;52.392;13.092;2023-11-19T05:51:00;100291.18;;;11.91;52.27
27304;BME280;14791;52.392;13.092;2023-11-19T05:53:30;100290.34;;;11.91;52.29
27304;BME280;14791;52.392;13.092;2023-11-19T05:55:59;100284.39;;;11.93;52.37
27304;BME280;14791;52.392;13.092;2023-11-19T05:58:30;100269.52;;;11.89;52.19
27304;BME280;14791;52.392;13.092;2023-11-19T06:01:00;100269.52;;;11.89;52.19
27304;BME280;14791;52.392;13.092;2023-11-19T06:03:30;100258.97;;;11.93;52.26
27304;BME280;14791;52.392;13.092;2023-11-19T06:05:59;100266.61;;;11.92;52.25
27304;BME280;14791;52.392;13.092;2023-11-19T06:08:28;100258.33;;;11.89;52.34
27304;BME280;14791;52.392;13.092;2023-11-19T06:10:58;100267.23;;;11.90;52.46
27304;BME280;14791;52.392;13.092;2023-11-19T06:13:29;100249.66;;;11.86;52.61
27304;BME280;14791;52.392;13.092;2023-11-19T06:15:58;100254.45;;;11.88;52.60
27304;BME280;14791;52.392;13.092;2023-11-19T06:18:27;100237.05;;;11.88;52.60
27304;BME280;14791;52.392;13.092;2023-11-19T06:20:56;100231.20;;;11.88;52.64
27304;BME280;14791;52.392;13.092;2023-11-19T06:23:25;100235.71;;;11.88;52.66
27304;BME280;14791;52.392;13.092;2023-11-19T06:25:54;100218.19;;;11.89;52.67
27304;BME280;14791;52.392;13.092;2023-11-19T06:28:23;100203.95;;;11.89;52.64
27304;BME280;14791;52.392;13.092;2023-11-19T06:30:52;100226.47;;;11.92;52.64
27304;BME280;14791;52.392;13.092;2023-11-19T06:33:21;100194.00;;;11.91;52.52
27304;BME280;14791;52.392;13.092;2023-11-19T06:35:50;100197.16;;;11.90;52.51
27304;BME280;14791;52.392;13.092;2023-11-19T06:38:18;100186.95;;;11.90;52.59
27304;BME280;14791;52.392;13.092;2023-11-19T06:40:47;100198.42;;;11.85;52.69
27304;BME280;14791;52.392;13.092;2023-11-19T06:43:16;100195.19;;;11.87;52.52
27304;BME280;14791;52.392;13.092;2023-11-19T06:45:47;100184.59;;;11.85;52.64
27304;BME280;14791;52.392;13.092;2023-11-19T06:48:16;100196.23;;;11.84;52.79
27304;BME280;14791;52.392;13.092;2023-11-19T06:50:44;100187.37;;;11.84;52.76
27304;BME280;14791;52.392;13.092;2023-11-19T06:53:13;100180.68;;;11.84;52.86
27304;BME280;14791;52.392;13.092;2023-11-19T06:55:43;100184.69;;;11.84;52.98
27304;BME280;14791;52.392;13.092;2023-11-19T06:58:12;100177.41;;;11.86;53.04
27304;BME280;14791;52.392;13.092;2023-11-19T07:00:40;100176.34;;;11.88;53.05
27304;BME280;14791;52.392;13.092;2023-11-19T07:03:09;100170.27;;;11.92;53.16
27304;BME280;14791;52.392;13.092;2023-11-19T07:05:40;100170.27;;;11.92;53.16
27304;BME280;14791;52.392;13.092;2023-11-19T07:08:11;100181.85;;;11.98;53.26
27304;BME280;14791;52.392;13.092;2023-11-19T07:10:41;100176.64;;;12.02;53.16
27304;BME280;14791;52.392;13.092;2023-11-19T07:13:10;100187.11;;;12.05;52.98
27304;BME280;14791;52.392;13.092;2023-11-19T07:15:39;100187.11;;;12.05;52.98
27304;BME280;14791;52.392;13.092;2023-11-19T07:18:08;100187.11;;;12.11;53.12
27304;BME280;14791;52.392;13.092;2023-11-19T07:20:37;100191.27;;;12.15;53.19
27304;BME280;14791;52.392;13.092;2023-11-19T07:23:07;100181.89;;;12.15;53.20
27304;BME280;14791;52.392;13.092;2023-11-19T07:25:37;100187.99;;;12.23;53.25
27304;BME280;14791;52.392;13.092;2023-11-19T07:28:06;100184.47;;;12.28;53.25
27304;BME280;14791;52.392;13.092;2023-11-19T07:30:35;100181.93;;;12.32;53.27
27304;BME280;14791;52.392;13.092;2023-11-19T07:33:04;100182.42;;;12.37;53.23
27304;BME280;14791;52.392;13.092;2023-11-19T07:35:33;100187.42;;;12.42;53.18
27304;BME280;14791;52.392;13.092;2023-11-19T07:38:04;100190.73;;;12.45;53.14
27304;BME280;14791;52.392;13.092;2023-11-19T07:40:33;100189.63;;;12.48;53.17
27304;BME280;14791;52.392;13.092;2023-11-19T07:43:02;100187.55;;;12.51;53.10
27304;BME280;14791;52.392;13.092;2023-11-19T07:45:31;100181.70;;;12.46;53.02
27304;BME280;14791;52.392;13.092;2023-11-19T07:48:00;100190.61;;;12.52;53.11
27304;BME280;14791;52.392;13.092;2023-11-19T07:50:29;100186.59;;;12.52;53.22
27304;BME280;14791;52.392;13.092;2023-11-19T07:52:59;100189.02;;;12.55;53.30
27304;BME280;14791;52.392;13.092;2023-11-19T07:55:30;100191.45;;;12.59;53.29
27304;BME280;14791;52.392;13.092;2023-11-19T07:57:58;100180.48;;;12.62;53.31
27304;BME280;14791;52.392;13.092;2023-11-19T08:00:30;100184.28;;;12.65;53.37
27304;BME280;14791;52.392;13.092;2023-11-19T08:02:58;100193.77;;;12.69;53.41
27304;BME280;14791;52.392;13.092;2023-11-19T08:05:27;100184.66;;;12.71;53.41
27304;BME280;14791;52.392;13.092;2023-11-19T08:07:58;100175.87;;;12.75;53.47
27304;BME280;14791;52.392;13.092;2023-11-19T08:10:27;100173.81;;;12.79;53.60
27304;BME280;14791;52.392;13.092;2023-11-19T08:12:58;100173.69;;;12.86;53.70
27304;BME280;14791;52.392;13.092;2023-11-19T08:15:27;100177.09;;;12.93;53.74
27304;BME280;14791;52.392;13.092;2023-11-19T08:17:56;100176.58;;;12.99;53.77
27304;BME280;14791;52.392;13.092;2023-11-19T08:20:25;100171.47;;;13.08;53.76
27304;BME280;14791;52.392;13.092;2023-11-19T08:22:54;100171.69;;;13.16;53.74
27304;BME280;14791;52.392;13.092;2023-11-19T08:25:23;100164.84;;;13.23;53.73
27304;BME280;14791;52.392;13.092;2023-11-19T08:27:52;100155.73;;;13.31;53.74
27304;BME280;14791;52.392;13.092;2023-11-19T08:30:20;100156.28;;;13.40;53.74
27304;BME280;14791;52.392;13.092;2023-11-19T08:32:49;100158.36;;;13.48;53.68
27304;BME280;14791;52.392;13.092;2023-11-19T08:35:18;100172.59;;;13.54;53.63
27304;BME280;14791;52.392;13.092;2023-11-19T08:37:47;100158.67;;;13.60;53.53
27304;BME280;14791;52.392;13.092;2023-11-19T08:40:16;100153.27;;;13.66;53.56
27304;BME280;14791;52.392;13.092;2023-11-19T08:42:45;100152.39;;;13.71;53.60
27304;BME280;14791;52.392;13.092;2023-11-19T08:45:14;100160.91;;;13.76;53.57
27304;BME280;14791;52.392;13.092;2023-11-19T08:47:43;100156.03;;;13.81;53.57
27304;BME280;14791;52.392;13.092;2023-11-19T08:50:13;100153.92;;;13.85;53.51
27304;BME280;14791;52.392;13.092;2023-11-19T08:52:42;100148.05;;;13.86;53.41
27304;BME280;14791;52.392;13.092;2023-11-19T08:55:10;100155.61;;;13.86;53.49
27304;BME280;14791;52.392;13.092;2023-11-19T08:57:41;100152.08;;;13.86;53.57
27304;BME280;14791;52.392;13.092;2023-11-19T09:00:11;100156.11;;;13.86;53.68
27304;BME280;14791;52.392;13.092;2023-11-19T09:02:41;100150.73;;;13.86;53.82
27304;BME280;14791;52.392;13.092;2023-11-19T09:05:10;100155.14;;;13.87;53.87
27304;BME280;14791;52.392;13.092;2023-11-19T09:07:40;100159.17;;;13.87;54.04
27304;BME280;14791;52.392;13.092;2023-11-19T09:10:09;100155.61;;;13.86;54.08
27304;BME280;14791;52.392;13.092;2023-11-19T09:12:40;100163.92;;;13.89;54.17
27304;BME280;14791;52.392;13.092;2023-11-19T09:15:09;100150.85;;;13.90;54.24
27304;BME280;14791;52.392;13.092;2023-11-19T09:17:38;100159.25;;;13.91;54.23
27304;BME280;14791;52.392;13.092;2023-11-19T09:20:10;100167.68;;;13.92;54.33
27304;BME280;14791;52.392;13.092;2023-11-19T09:22:41;100159.98;;;13.93;54.48
27304;BME280;14791;52.392;13.092;2023-11-19T09:25:10;100162.05;;;13.95;54.58
27304;BME280;14791;52.392;13.092;2023-11-19T09:27:41;100156.41;;;13.98;54.72
27304;BME280;14791;52.392;13.092;2023-11-19T09:30:11;100158.47;;;14.00;54.81
27304;BME280;14791;52.392;13.092;2023-11-19T09:32:40;100163.95;;;14.04;55.04
27304;BME280;14791;52.392;13.092;2023-11-19T09:35:09;100162.45;;;14.11;55.21
27304;BME280;14791;52.392;13.092;2023-11-19T09:37:40;100155.91;;;14.19;55.35
27304;BME280;14791;52.392;13.092;2023-11-19T09:40:09;100156.13;;;14.28;55.40
27304;BME280;14791;52.392;13.092;2023-11-19T09:42:45;100152.27;;;14.36;55.34
27304;BME280;14791;52.392;13.092;2023-11-19T09:45:15;100148.06;;;14.43;55.33
27304;BME280;14791;52.392;13.092;2023-11-19T09:47:46;100154.98;;;14.51;55.40
27304;BME280;14791;52.392;13.092;2023-11-19T09:50:19;100145.43;;;14.58;55.45
27304;BME280;14791;52.392;13.092;2023-11-19T09:52:48;100148.16;;;14.68;55.45
27304;BME280;14791;52.392;13.092;2023-11-19T09:55:18;100150.16;;;14.76;55.49
27304;BME280;14791;52.392;13.092;2023-11-19T09:57:50;100152.37;;;14.86;55.55
27304;BME280;14791;52.392;13.092;2023-11-19T10:00:21;100154.25;;;14.95;55.61
27304;BME280;14791;52.392;13.092;2023-11-19T10:02:50;100151.09;;;15.05;55.49
27304;BME280;14791;52.392;13.092;2023-11-19T10:05:20;100153.33;;;15.16;55.38
27304;BME280;14791;52.392;13.092;2023-11-19T10:07:51;100151.28;;;15.23;55.35
27304;BME280;14791;52.392;13.092;2023-11-19T10:10:20;100158.31;;;15.30;55.30
27304;BME280;14791;52.392;13.092;2023-11-19T10:12:56;100151.73;;;15.38;55.27
27304;BME280;14791;52.392;13.092;2023-11-19T10:15:23;100153.92;;;15.48;55.28
27304;BME280;14791;52.392;13.092;2023-11-19T10:17:57;100154.94;;;15.57;55.25
27304;BME280;14791;52.392;13.092;2023-11-19T10:20:26;100154.59;;;15.66;55.10
27304;BME280;14791;52.392;13.092;2023-11-19T10:22:56;100147.69;;;15.73;55.02
27304;BME280;14791;52.392;13.092;2023-11-19T10:25:27;100145.96;;;15.82;54.92
27304;BME280;14791;52.392;13.092;2023-11-19T10:27:57;100148.44;;;15.89;54.77
27304;BME280;14791;52.392;13.092;2023-11-19T10:30:29;100154.23;;;15.94;54.61
27304;BME280;14791;52.392;13.092;2023-11-19T10:33:09;100149.77;;;15.99;54.59
27304;BME280;14791;52.392;13.092;2023-11-19T10:35:54;100147.02;;;16.04;54.77
27304;BME280;14791;52.392;13.092;2023-11-19T10:38:28;100145.21;;;16.09;54.66
27304;BME280;14791;52.392;13.092;2023-11-19T10:40:58;100147.64;;;16.12;54.61
27304;BME280;14791;52.392;13.092;2023-11-19T10:43:27;100147.41;;;16.19;54.47
27304;BME280;14791;52.392;13.092;2023-11-19T10:46:11;100136.67;;;16.23;54.44
27304;BME280;14791;52.392;13.092;2023-11-19T10:48:41;100135.39;;;16.27;54.40
27304;BME280;14791;52.392;13.092;2023-11-19T10:51:10;100146.38;;;16.30;54.41
27304;BME280;14791;52.392;13.092;2023-11-19T10:53:43;100140.22;;;16.33;54.36
27304;BME280;14791;52.392;13.092;2023-11-19T10:56:13;100133.52;;;16.37;54.30
27304;BME280;14791;52.392;13.092;2023-11-19T10:58:46;100127.98;;;16.39;54.31
27304;BME280;14791;52.392;13.092;2023-11-19T11:01:22;100124.78;;;16.40;54.31
27304;BME280;14791;52.392;13.092;2023-11-19T11:03:51;100118.22;;;16.38;54.33
27304;BME280;14791;52.392;13.092;2023-11-19T11:06:22;100119.36;;;16.35;54.32
27304;BME280;14791;52.392;13.092;2023-11-19T11:08:51;100121.48;;;16.32;54.41
27304;BME280;14791;52.392;13.092;2023-11-19T11:11:21;100122.30;;;16.28;54.55
27304;BME280;14791;52.392;13.092;2023-11-19T11:13:51;100130.30;;;16.24;54.76
27304;BME280;14791;52.392;13.092;2023-11-19T11:16:23;100124.34;;;16.21;54.86
27304;BME280;14791;52.392;13.092;2023-11-19T11:18:53;100132.09;;;16.20;54.81
27304;BME280;14791;52.392;13.092;2023-11-19T11:21:24;100125.15;;;16.17;54.89
27304;BME280;14791;52.392;13.092;2023-11-19T11:24:06;100120.27;;;16.16;54.96
27304;BME280;14791;52.392;13.092;2023-11-19T11:35:36;100133.73;;;16.16;55.22
27304;BME280;14791;52.392;13.092;2023-11-19T11:38:04;100142.66;;;16.17;55.27
27304;BME280;14791;52.392;13.092;2023-11-19T11:40:34;100135.29;;;16.19;55.24
27304;BME280;14791;52.392;13.092;2023-11-19T11:43:50;100143.27;;;16.25;55.29
27304;BME280;14791;52.392;13.092;2023-11-19T11:45:41;100133.81;;;16.34;55.31
27304;BME280;14791;52.392;13.092;2023-11-19T11:48:12;100137.99;;;16.43;55.31
27304;BME280;14791;52.392;13.092;2023-11-19T11:50:53;100132.91;;;16.53;55.17
27304;BME280;14791;52.392;13.092;2023-11-19T11:53:23;100139.27;;;16.62;54.96
27304;BME280;14791;52.392;13.092;2023-11-19T11:55:54;100136.33;;;16.69;54.86
27304;BME280;14791;52.392;13.092;2023-11-19T11:58:27;100123.95;;;16.76;54.68
27304;BME280;14791;52.392;13.092;2023-11-19T12:01:02;100135.70;;;16.85;54.58
27304;BME280;14791;52.392;13.092;2023-11-19T12:03:34;100131.20;;;16.90;54.45
27304;BME280;14791;52.392;13.092;2023-11-19T12:06:03;100127.92;;;16.96;54.28
27304;BME280;14791;52.392;13.092;2023-11-19T12:08:34;100125.61;;;17.01;54.14
27304;BME280;14791;52.392;13.092;2023-11-19T12:11:04;100123.95;;;17.04;53.99
27304;BME280;14791;52.392;13.092;2023-11-19T12:13:55;100115.58;;;17.07;53.89
27304;BME280;14791;52.392;13.092;2023-11-19T12:16:26;100118.30;;;17.11;53.81
27304;BME280;14791;52.392;13.092;2023-11-19T12:18:56;100118.95;;;17.09;53.78
27304;BME280;14791;52.392;13.092;2023-11-19T12:21:30;100122.86;;;17.11;53.68
27304;BME280;14791;52.392;13.092;2023-11-19T12:24:00;100125.41;;;17.12;53.74
27304;BME280;14791;52.392;13.092;2023-11-19T12:26:39;100113.55;;;17.09;53.79
27304;BME280;14791;52.392;13.092;2023-11-19T12:29:08;100105.77;;;17.06;53.79
27304;BME280;14791;52.392;13.092;2023-11-19T12:31:37;100108.73;;;16.99;53.80
27304;BME280;14791;52.392;13.092;2023-11-19T12:34:07;100108.64;;;16.91;53.92
27304;BME280;14791;52.392;13.092;2023-11-19T12:36:38;100123.73;;;16.84;54.00
27304;BME280;14791;52.392;13.092;2023-11-19T12:39:07;100119.20;;;16.74;54.06
27304;BME280;14791;52.392;13.092;2023-11-19T12:41:51;100124.84;;;16.67;54.21
27304;BME280;14791;52.392;13.092;2023-11-19T12:44:20;100118.54;;;16.63;54.21
27304;BME280;14791;52.392;13.092;2023-11-19T12:47:06;100121.28;;;16.53;54.34
27304;BME280;14791;52.392;13.092;2023-11-19T12:49:30;100128.80;;;16.49;54.49
27304;BME280;14791;52.392;13.092;2023-11-19T12:51:59;100132.94;;;16.44;54.61
27304;BME280;14791;52.392;13.092;2023-11-19T12:54:37;100133.24;;;16.41;54.91
27304;BME280;14791;52.392;13.092;2023-11-19T12:57:06;100131.83;;;16.36;55.02
27304;BME280;14791;52.392;13.092;2023-11-19T12:59:36;100127.88;;;16.31;55.05
27304;BME280;14791;52.392;13.092;2023-11-19T13:02:06;100119.53;;;16.24;55.20
27304;BME280;14791;52.392;13.092;2023-11-19T13:04:35;100124.51;;;16.19;55.31